Time;durP1;ratioP1;P1;durP2;ratioP2;P2;SDS_P1;SDS_P2;PMS_P1;PMS_P2;Temp;Humidity;BMP_temperature;BMP_pressure;BME280_temperature;BME280_humidity;BME280_pressure;Samples;Min_cycle;Max_cycle;Signal;HPM_P1;HPM_P2
2023/12/13 00:00:14;;;;;;;43.30;21.07;;;;;;;;;;5070911;28;20560;-85
2023/12/13 00:02:40;;;;;;;44.20;19.33;;;;;;;;;;5071830;28;20456;-86
2023/12/13 00:33:56;;;;;;;45.70;21.10;;;;;;;;;;5069763;28;20466;-83
2023/12/13 00:36:23;;;;;;;38.53;19.93;;;;;;;;;;5077331;28;20503;-85
2023/12/13 00:38:49;;;;;;;44.73;21.10;;;;;;;;;;5080372;28;20519;-86
2023/12/13 00:41:16;;;;;;;41.20;19.40;;;;;;;;;;5073877;28;20456;-85
2023/12/13 00:43:42;;;;;;;53.70;21.87;;;;;;;;;;5079834;28;21334;-85
2023/12/13 00:46:14;;;;;;;32.70;18.47;;;;;;;;;;5078710;28;20456;-83
2023/12/13 00:48:40;;;;;;;28.97;15.93;;;;;;;;;;5079369;28;20452;-86
2023/12/13 00:51:17;;;;;;;26.63;14.63;;;;;;;;;;5070799;28;20456;-83
2023/12/13 00:53:43;;;;;;;29.93;14.17;;;;;;;;;;5076444;28;20456;-85
2023/12/13 00:56:10;;;;;;;23.50;11.63;;;;;;;;;;5072701;28;20485;-87
2023/12/13 00:58:36;;;;;;;13.90;9.23;;;;;;;;;;5077028;28;20471;-89
2023/12/13 01:01:03;;;;;;;20.67;11.00;;;;;;;;;;5079295;28;20506;-86
2023/12/13 01:03:29;;;;;;;18.20;9.80;;;;;;;;;;5080539;28;20497;-86
2023/12/13 01:05:55;;;;;;;19.07;11.47;;;;;;;;;;5077062;28;20456;-86
2023/12/13 01:08:24;;;;;;;20.53;11.23;;;;;;;;;;5077928;28;20568;-83
2023/12/13 01:10:50;;;;;;;16.50;10.90;;;;;;;;;;5075883;28;20465;-86
2023/12/13 01:13:16;;;;;;;15.80;11.90;;;;;;;;;;5074856;28;20518;-84
2023/12/13 01:15:43;;;;;;;20.00;13.50;;;;;;;;;;5079139;28;20518;-85
2023/12/13 01:18:09;;;;;;;27.10;15.20;;;;;;;;;;5078950;28;20517;-86
2023/12/13 01:20:36;;;;;;;22.47;15.40;;;;;;;;;;5072741;28;20918;-86
2023/12/13 01:23:02;;;;;;;22.43;14.40;;;;;;;;;;5079270;28;20466;-86
2023/12/13 01:25:30;;;;;;;21.53;13.17;;;;;;;;;;5079000;28;20460;-87
2023/12/13 01:27:57;;;;;;;19.07;12.23;;;;;;;;;;5079626;28;21113;-86
2023/12/13 01:30:24;;;;;;;13.43;8.53;;;;;;;;;;5079771;28;20456;-86
2023/12/13 01:32:50;;;;;;;11.50;7.60;;;;;;;;;;5077883;28;20467;-86
2023/12/13 01:35:17;;;;;;;9.80;6.57;;;;;;;;;;5075340;28;20932;-85
2023/12/13 01:37:43;;;;;;;9.40;5.87;;;;;;;;;;5079709;28;21091;-84
2023/12/13 01:40:10;;;;;;;12.90;5.37;;;;;;;;;;5078029;28;20476;-84
2023/12/13 01:42:39;;;;;;;6.00;4.53;;;;;;;;;;5070564;28;20473;-85
2023/12/13 01:45:07;;;;;;;6.40;4.30;;;;;;;;;;5076756;28;20459;-86
2023/12/13 01:47:34;;;;;;;6.27;4.60;;;;;;;;;;5077080;28;20606;-85
2023/12/13 01:50:00;;;;;;;4.50;3.80;;;;;;;;;;5075095;28;20503;-84
2023/12/13 01:52:28;;;;;;;5.40;3.93;;;;;;;;;;5069166;28;20483;-85
2023/12/13 01:54:55;;;;;;;4.83;3.23;;;;;;;;;;5074185;28;20452;-86
2023/12/13 01:57:21;;;;;;;3.50;3.00;;;;;;;;;;5070261;28;20494;-85
2023/12/13 01:59:49;;;;;;;4.33;3.20;;;;;;;;;;5076535;28;20487;-84
2023/12/13 02:02:16;;;;;;;3.10;2.80;;;;;;;;;;5069442;28;20551;-84
2023/12/13 02:04:43;;;;;;;4.70;3.07;;;;;;;;;;5062474;28;20447;-83
2023/12/13 02:07:10;;;;;;;5.10;3.33;;;;;;;;;;5076731;28;20456;-86
2023/12/13 02:09:36;;;;;;;4.33;3.50;;;;;;;;;;5075375;28;20474;-85
2023/12/13 02:12:03;;;;;;;8.63;4.90;;;;;;;;;;5070333;28;20457;-85
2023/12/13 02:14:29;;;;;;;5.73;4.83;;;;;;;;;;5072471;28;20555;-83
2023/12/13 02:16:57;;;;;;;5.23;4.70;;;;;;;;;;5072389;28;20480;-83
2023/12/13 02:19:23;;;;;;;5.17;3.30;;;;;;;;;;5072019;28;20834;-86
2023/12/13 02:21:50;;;;;;;6.43;3.90;;;;;;;;;;5071736;28;20457;-85
2023/12/13 02:24:21;;;;;;;6.40;3.50;;;;;;;;;;5073440;28;20437;-84
2023/12/13 02:26:50;;;;;;;3.83;3.40;;;;;;;;;;5075387;28;20460;-84
2023/12/13 02:29:17;;;;;;;6.23;3.73;;;;;;;;;;5073393;28;20444;-85
2023/12/13 02:31:44;;;;;;;5.90;3.50;;;;;;;;;;5074928;28;20463;-84
2023/12/13 02:34:10;;;;;;;4.37;3.87;;;;;;;;;;5077135;28;20530;-83
2023/12/13 02:36:38;;;;;;;5.93;3.77;;;;;;;;;;5070819;28;20460;-85
2023/12/13 02:39:05;;;;;;;5.07;3.70;;;;;;;;;;5074030;28;20480;-86
2023/12/13 02:41:33;;;;;;;5.40;3.70;;;;;;;;;;5071477;28;21002;-84
2023/12/13 02:44:00;;;;;;;7.80;4.33;;;;;;;;;;5072643;28;20459;-84
2023/12/13 02:46:26;;;;;;;5.80;4.50;;;;;;;;;;5074688;28;20456;-85
2023/12/13 02:48:53;;;;;;;7.70;5.03;;;;;;;;;;5070784;28;20491;-84
2023/12/13 02:51:19;;;;;;;10.13;6.13;;;;;;;;;;5070723;28;20603;-86
2023/12/13 02:53:45;;;;;;;8.10;5.90;;;;;;;;;;5072833;28;20520;-84
2023/12/13 02:56:12;;;;;;;12.20;6.40;;;;;;;;;;5076142;28;20487;-84
2023/12/13 02:58:39;;;;;;;8.67;6.23;;;;;;;;;;5073942;28;20480;-83
2023/12/13 03:01:06;;;;;;;10.13;7.20;;;;;;;;;;5072998;28;21231;-87
2023/12/13 03:03:32;;;;;;;10.23;7.70;;;;;;;;;;5073272;28;20528;-83
2023/12/13 03:05:59;;;;;;;11.30;7.17;;;;;;;;;;5074768;28;20463;-82
2023/12/13 03:08:25;;;;;;;14.00;8.37;;;;;;;;;;5076238;28;20488;-84
2023/12/13 03:10:52;;;;;;;11.20;7.20;;;;;;;;;;5072821;28;20452;-86
2023/12/13 03:13:18;;;;;;;12.17;7.57;;;;;;;;;;5076274;28;20467;-87
2023/12/13 03:15:46;;;;;;;11.70;8.43;;;;;;;;;;5075739;28;20947;-85
2023/12/13 03:18:12;;;;;;;13.23;8.30;;;;;;;;;;5075451;28;20458;-84
2023/12/13 03:20:39;;;;;;;13.60;10.30;;;;;;;;;;5072460;28;20515;-84
2023/12/13 03:23:07;;;;;;;18.10;9.90;;;;;;;;;;5074043;28;20459;-85
2023/12/13 03:25:33;;;;;;;15.33;9.90;;;;;;;;;;5063040;28;20485;-82
2023/12/13 03:28:00;;;;;;;18.43;10.87;;;;;;;;;;5070325;28;20719;-86
2023/12/13 03:30:26;;;;;;;17.53;10.20;;;;;;;;;;5072468;28;20452;-86
2023/12/13 03:32:54;;;;;;;18.20;11.33;;;;;;;;;;5071242;28;20445;-87
2023/12/13 03:35:21;;;;;;;19.10;11.77;;;;;;;;;;5073089;28;20514;-87
2023/12/13 03:37:47;;;;;;;16.17;10.17;;;;;;;;;;5071232;28;20452;-85
2023/12/13 03:40:14;;;;;;;17.70;11.10;;;;;;;;;;5071875;28;20507;-85
2023/12/13 03:42:40;;;;;;;16.50;10.43;;;;;;;;;;5073199;28;20436;-87
2023/12/13 03:45:07;;;;;;;16.70;10.10;;;;;;;;;;5072169;28;20444;-88
2023/12/13 03:47:33;;;;;;;20.17;12.70;;;;;;;;;;5068627;28;20452;-83
2023/12/13 03:50:01;;;;;;;19.63;11.03;;;;;;;;;;5068306;28;20440;-83
2023/12/13 03:52:28;;;;;;;19.13;10.57;;;;;;;;;;5074349;28;20459;-83
2023/12/13 03:54:54;;;;;;;16.40;10.77;;;;;;;;;;5077580;28;20902;-84
2023/12/13 03:57:21;;;;;;;19.20;10.83;;;;;;;;;;5079214;28;20483;-81
2023/12/13 03:59:47;;;;;;;17.17;10.47;;;;;;;;;;5067384;28;20502;-82
2023/12/13 04:02:13;;;;;;;18.67;11.20;;;;;;;;;;5066582;28;20480;-81
2023/12/13 04:04:40;;;;;;;17.93;12.10;;;;;;;;;;5068648;28;20456;-81
2023/12/13 04:07:09;;;;;;;19.23;12.93;;;;;;;;;;5067648;28;20513;-82
2023/12/13 04:09:35;;;;;;;20.40;12.50;;;;;;;;;;5066650;28;20459;-80
2023/12/13 04:12:02;;;;;;;21.50;13.50;;;;;;;;;;5071141;28;20479;-83
2023/12/13 04:14:29;;;;;;;20.73;13.20;;;;;;;;;;5070268;28;20538;-86
2023/12/13 04:16:55;;;;;;;23.67;14.00;;;;;;;;;;5066812;28;20519;-84
2023/12/13 04:19:22;;;;;;;25.77;14.27;;;;;;;;;;5065750;28;20469;-87
2023/12/13 04:21:48;;;;;;;25.33;13.93;;;;;;;;;;5073249;28;20531;-84
2023/12/13 04:24:16;;;;;;;27.90;14.33;;;;;;;;;;5069679;28;20428;-87
2023/12/13 04:26:42;;;;;;;23.63;15.80;;;;;;;;;;5071414;28;20483;-84
2023/12/13 04:29:09;;;;;;;23.13;14.63;;;;;;;;;;5069510;28;20473;-85
2023/12/13 04:31:35;;;;;;;25.43;15.77;;;;;;;;;;5071076;28;20471;-87
2023/12/13 04:34:01;;;;;;;21.57;14.90;;;;;;;;;;5072259;28;20479;-87
2023/12/13 04:36:28;;;;;;;25.83;14.30;;;;;;;;;;5070400;28;20473;-88
2023/12/13 04:38:55;;;;;;;22.50;14.53;;;;;;;;;;5071860;28;20432;-87
2023/12/13 04:41:23;;;;;;;25.73;13.60;;;;;;;;;;5071478;28;20487;-86
2023/12/13 04:43:49;;;;;;;23.27;12.93;;;;;;;;;;5072201;28;20875;-87
2023/12/13 04:46:15;;;;;;;20.37;13.07;;;;;;;;;;5073489;28;20456;-86
2023/12/13 04:48:42;;;;;;;18.73;12.77;;;;;;;;;;5075712;28;20770;-83
2023/12/13 04:51:08;;;;;;;20.50;12.23;;;;;;;;;;5079250;28;20476;-86
2023/12/13 04:53:35;;;;;;;27.93;11.73;;;;;;;;;;5079315;28;20476;-86
2023/12/13 04:56:02;;;;;;;17.90;10.23;;;;;;;;;;5074472;28;20571;-87
2023/12/13 04:58:30;;;;;;;21.20;11.30;;;;;;;;;;5080033;28;20509;-87
2023/12/13 05:00:56;;;;;;;20.57;10.70;;;;;;;;;;5080599;28;20534;-86
2023/12/13 05:03:23;;;;;;;21.70;12.43;;;;;;;;;;5073461;28;20482;-86
2023/12/13 05:05:49;;;;;;;21.83;12.20;;;;;;;;;;5079020;28;21036;-87
2023/12/13 05:08:15;;;;;;;19.40;12.17;;;;;;;;;;5071121;28;20514;-87
2023/12/13 05:10:43;;;;;;;18.63;10.57;;;;;;;;;;5080254;28;20457;-84
2023/12/13 05:13:09;;;;;;;18.63;11.10;;;;;;;;;;5074018;28;20467;-86
2023/12/13 05:15:37;;;;;;;20.90;12.33;;;;;;;;;;5070904;28;20449;-88
2023/12/13 05:18:04;;;;;;;17.17;11.97;;;;;;;;;;5072680;28;20484;-84
2023/12/13 05:20:30;;;;;;;17.07;12.30;;;;;;;;;;5069997;28;20527;-84
2023/12/13 05:22:57;;;;;;;22.30;12.53;;;;;;;;;;5074391;28;20449;-85
2023/12/13 05:25:23;;;;;;;19.20;12.20;;;;;;;;;;5072129;28;20480;-84
2023/12/13 05:27:50;;;;;;;17.10;11.40;;;;;;;;;;5072465;28;20453;-85
2023/12/13 05:30:18;;;;;;;19.27;12.83;;;;;;;;;;5070095;28;20455;-84
2023/12/13 05:32:46;;;;;;;23.73;13.40;;;;;;;;;;5079318;28;20540;-86
2023/12/13 05:35:13;;;;;;;26.80;12.03;;;;;;;;;;5079878;28;21159;-87
2023/12/13 05:37:39;;;;;;;21.10;11.83;;;;;;;;;;5076515;28;20460;-86
2023/12/13 05:40:07;;;;;;;20.40;12.70;;;;;;;;;;5073097;28;20479;-81
2023/12/13 05:42:33;;;;;;;21.10;12.87;;;;;;;;;;5078087;28;20458;-87
2023/12/13 05:45:00;;;;;;;20.97;13.33;;;;;;;;;;5078206;28;20456;-85
2023/12/13 05:47:26;;;;;;;22.83;13.67;;;;;;;;;;5075197;28;20863;-86
2023/12/13 05:49:54;;;;;;;20.63;13.80;;;;;;;;;;5077078;28;20502;-86
2023/12/13 05:52:20;;;;;;;18.37;12.33;;;;;;;;;;5064825;28;21046;-87
2023/12/13 05:54:47;;;;;;;20.87;13.17;;;;;;;;;;5075513;28;20459;-88
2023/12/13 05:57:13;;;;;;;20.23;12.30;;;;;;;;;;5076787;28;21121;-87
2023/12/13 05:59:40;;;;;;;22.07;12.47;;;;;;;;;;5074589;28;20445;-87
2023/12/13 06:02:06;;;;;;;17.97;12.10;;;;;;;;;;5076489;28;20444;-81
2023/12/13 06:04:33;;;;;;;20.50;12.10;;;;;;;;;;5076782;28;20492;-82
2023/12/13 06:07:00;;;;;;;19.40;12.80;;;;;;;;;;5064212;28;21042;-81
2023/12/13 06:09:27;;;;;;;22.90;14.70;;;;;;;;;;5078103;28;20468;-85
2023/12/13 06:11:54;;;;;;;27.60;12.73;;;;;;;;;;5070130;28;20463;-81
2023/12/13 06:14:21;;;;;;;24.97;14.90;;;;;;;;;;5068643;28;20671;-84
2023/12/13 06:16:47;;;;;;;27.47;14.43;;;;;;;;;;5067615;28;20448;-87
2023/12/13 06:19:14;;;;;;;24.33;13.80;;;;;;;;;;5073904;28;20456;-84
2023/12/13 06:21:40;;;;;;;24.00;13.23;;;;;;;;;;5076551;28;21244;-85
2023/12/13 06:24:08;;;;;;;21.83;14.33;;;;;;;;;;5077468;28;20471;-79
2023/12/13 06:26:34;;;;;;;23.03;13.27;;;;;;;;;;5076576;28;20511;-85
2023/12/13 06:36:59;;;;;;;15.10;11.70;;;;;;;;;;4892337;26;20496;-89
2023/12/13 06:44:53;;;;;;;15.13;10.87;;;;;;;;;;3542286;22;20487;-90
2023/12/13 06:47:20;;;;;;;20.13;12.80;;;;;;;;;;5067356;28;20499;-89
2023/12/13 06:49:47;;;;;;;17.63;12.17;;;;;;;;;;5068554;28;20445;-90
2023/12/13 06:52:14;;;;;;;20.00;12.50;;;;;;;;;;5047649;28;20455;-90
2023/12/13 06:54:40;;;;;;;14.27;10.60;;;;;;;;;;5070252;28;20506;-88
2023/12/13 06:57:07;;;;;;;18.07;10.80;;;;;;;;;;5073353;28;20468;-88
2023/12/13 06:59:33;;;;;;;18.23;11.77;;;;;;;;;;5072565;28;20527;-87
2023/12/13 07:02:01;;;;;;;15.70;11.70;;;;;;;;;;5068517;28;20499;-87
2023/12/13 07:04:28;;;;;;;16.77;11.27;;;;;;;;;;5079541;28;20528;-85
2023/12/13 07:06:55;;;;;;;17.40;12.33;;;;;;;;;;5078335;28;20472;-86
2023/12/13 07:09:21;;;;;;;18.03;12.50;;;;;;;;;;5078332;28;20455;-86
2023/12/13 07:11:47;;;;;;;18.93;12.20;;;;;;;;;;5079482;28;20530;-85
2023/12/13 07:14:14;;;;;;;25.23;10.67;;;;;;;;;;5066430;28;20874;-86
2023/12/13 07:16:40;;;;;;;18.30;12.37;;;;;;;;;;5071177;28;20494;-85
2023/12/13 07:19:08;;;;;;;18.50;11.80;;;;;;;;;;5070635;28;20480;-85
2023/12/13 07:21:35;;;;;;;18.10;12.70;;;;;;;;;;5078151;28;20537;-84
2023/12/13 07:24:01;;;;;;;16.90;12.23;;;;;;;;;;5078281;28;20447;-85
2023/12/13 07:26:27;;;;;;;19.37;10.67;;;;;;;;;;5079787;28;20480;-84
2023/12/13 07:28:55;;;;;;;15.40;11.20;;;;;;;;;;5082645;28;20487;-85
2023/12/13 07:31:21;;;;;;;18.03;10.77;;;;;;;;;;5080824;28;20479;-85
2023/12/13 07:33:47;;;;;;;16.97;11.40;;;;;;;;;;5079877;28;20965;-84
2023/12/13 07:36:16;;;;;;;14.10;10.40;;;;;;;;;;5078909;28;20562;-84
2023/12/13 07:38:43;;;;;;;21.03;10.90;;;;;;;;;;5083176;28;20456;-84
2023/12/13 07:41:09;;;;;;;14.97;9.10;;;;;;;;;;5076744;28;20550;-84
2023/12/13 07:43:35;;;;;;;10.70;7.43;;;;;;;;;;5082182;28;20479;-84
2023/12/13 07:46:03;;;;;;;9.00;7.23;;;;;;;;;;5082190;28;20522;-84
2023/12/13 07:48:29;;;;;;;10.17;7.23;;;;;;;;;;5078656;28;20456;-84
2023/12/13 07:50:56;;;;;;;11.87;7.23;;;;;;;;;;5080327;28;20543;-84
2023/12/13 07:53:24;;;;;;;13.03;7.37;;;;;;;;;;5072504;28;21011;-83
2023/12/13 07:55:50;;;;;;;9.83;6.50;;;;;;;;;;5082948;28;20485;-84
2023/12/13 07:58:17;;;;;;;10.30;7.10;;;;;;;;;;5083086;28;20468;-83
2023/12/13 08:00:44;;;;;;;16.63;8.20;;;;;;;;;;5079141;28;20486;-84
2023/12/13 08:03:11;;;;;;;11.47;8.00;;;;;;;;;;5070086;28;20447;-84
2023/12/13 08:05:37;;;;;;;11.50;8.10;;;;;;;;;;5085288;28;20455;-84
2023/12/13 08:08:04;;;;;;;11.73;7.90;;;;;;;;;;5079160;28;20487;-84
2023/12/13 08:10:32;;;;;;;11.80;8.90;;;;;;;;;;5081575;28;20993;-84
2023/12/13 08:12:58;;;;;;;13.30;8.87;;;;;;;;;;5086082;28;20511;-83
2023/12/13 08:15:24;;;;;;;12.43;8.87;;;;;;;;;;5082310;28;20483;-83
2023/12/13 08:17:51;;;;;;;11.47;8.87;;;;;;;;;;5076926;28;20448;-83
2023/12/13 08:20:18;;;;;;;19.23;10.40;;;;;;;;;;5085877;28;20517;-83
2023/12/13 08:22:44;;;;;;;14.17;10.53;;;;;;;;;;5085757;28;20497;-84
2023/12/13 08:25:11;;;;;;;13.87;9.83;;;;;;;;;;5082620;28;20462;-84
2023/12/13 08:27:38;;;;;;;18.67;11.23;;;;;;;;;;5082804;28;20483;-86
2023/12/13 08:30:06;;;;;;;18.60;12.60;;;;;;;;;;5076667;28;20507;-85
2023/12/13 08:32:32;;;;;;;16.00;11.93;;;;;;;;;;5080667;28;20448;-85
2023/12/13 08:34:58;;;;;;;18.00;12.87;;;;;;;;;;5082918;28;20455;-84
2023/12/13 08:37:25;;;;;;;18.47;11.83;;;;;;;;;;5076296;28;20445;-84
2023/12/13 08:39:52;;;;;;;17.40;11.60;;;;;;;;;;5075602;28;20461;-84
2023/12/13 08:42:19;;;;;;;16.43;12.20;;;;;;;;;;5075446;28;20491;-84
2023/12/13 08:44:47;;;;;;;21.67;11.60;;;;;;;;;;5082986;28;20523;-85
2023/12/13 08:47:13;;;;;;;18.63;12.77;;;;;;;;;;5080678;28;20487;-85
2023/12/13 08:49:40;;;;;;;15.17;11.63;;;;;;;;;;5080570;28;20459;-85
2023/12/13 08:52:06;;;;;;;19.97;11.60;;;;;;;;;;5082895;28;20455;-85
2023/12/13 08:54:34;;;;;;;17.07;11.70;;;;;;;;;;5080453;28;20587;-84
2023/12/13 08:57:00;;;;;;;18.10;12.00;;;;;;;;;;5080760;28;20464;-85
2023/12/13 08:59:26;;;;;;;19.50;13.03;;;;;;;;;;5077128;28;20972;-86
2023/12/13 09:01:55;;;;;;;17.50;11.90;;;;;;;;;;5074836;28;20537;-85
2023/12/13 09:04:21;;;;;;;19.40;11.67;;;;;;;;;;5078517;28;20483;-83
2023/12/13 09:06:48;;;;;;;19.10;10.60;;;;;;;;;;5082098;28;20514;-84
2023/12/13 09:09:14;;;;;;;20.60;11.80;;;;;;;;;;5081518;28;20488;-84
2023/12/13 09:11:40;;;;;;;17.67;11.63;;;;;;;;;;5075298;28;20505;-84
2023/12/13 09:14:07;;;;;;;18.20;11.27;;;;;;;;;;5072336;28;20495;-84
2023/12/13 09:16:33;;;;;;;19.03;11.00;;;;;;;;;;5072048;28;20445;-85
2023/12/13 09:19:02;;;;;;;14.40;10.03;;;;;;;;;;5079633;28;20493;-85
2023/12/13 09:21:28;;;;;;;16.87;10.53;;;;;;;;;;5078435;28;20492;-86
2023/12/13 09:23:55;;;;;;;13.57;9.80;;;;;;;;;;5074690;28;20867;-84
2023/12/13 09:26:21;;;;;;;16.90;10.30;;;;;;;;;;5072852;28;20440;-87
2023/12/13 09:28:48;;;;;;;17.60;9.90;;;;;;;;;;5078924;28;20487;-85
2023/12/13 09:31:14;;;;;;;15.60;10.30;;;;;;;;;;5080250;28;20452;-86
2023/12/13 09:33:40;;;;;;;13.80;9.33;;;;;;;;;;5075846;28;20440;-86
2023/12/13 09:36:09;;;;;;;13.93;9.27;;;;;;;;;;5078007;28;20931;-86
2023/12/13 09:38:35;;;;;;;11.20;8.10;;;;;;;;;;5076681;28;20448;-86
2023/12/13 09:41:02;;;;;;;17.07;9.40;;;;;;;;;;5070150;28;20449;-84
2023/12/13 09:43:28;;;;;;;14.00;9.10;;;;;;;;;;5078276;28;20517;-85
2023/12/13 09:45:55;;;;;;;14.50;9.13;;;;;;;;;;5080759;28;21073;-86
2023/12/13 09:48:23;;;;;;;15.33;9.47;;;;;;;;;;5079088;28;20456;-86
2023/12/13 09:50:52;;;;;;;15.40;8.30;;;;;;;;;;5078795;28;20472;-86
2023/12/13 09:53:21;;;;;;;13.67;9.43;;;;;;;;;;5080711;28;20480;-85
2023/12/13 09:55:47;;;;;;;15.83;9.67;;;;;;;;;;5073157;28;20482;-86
2023/12/13 09:58:14;;;;;;;11.97;8.33;;;;;;;;;;5074131;28;20547;-86
2023/12/13 10:00:41;;;;;;;12.20;9.87;;;;;;;;;;5080450;28;20512;-86
2023/12/13 10:03:07;;;;;;;15.80;9.37;;;;;;;;;;5071569;28;20523;-85
2023/12/13 10:05:34;;;;;;;15.43;9.80;;;;;;;;;;5076211;28;20491;-86
2023/12/13 10:08:02;;;;;;;14.33;9.27;;;;;;;;;;5081226;28;20574;-85
2023/12/13 10:10:31;;;;;;;16.80;9.37;;;;;;;;;;5072616;28;20462;-86
2023/12/13 10:12:58;;;;;;;13.90;9.97;;;;;;;;;;5079694;28;20460;-86
2023/12/13 10:15:29;;;;;;;18.83;10.50;;;;;;;;;;5076910;28;20568;-84
2023/12/13 10:17:55;;;;;;;11.97;9.60;;;;;;;;;;5082661;28;20444;-86
2023/12/13 10:20:21;;;;;;;17.77;9.73;;;;;;;;;;5078459;28;20547;-85
2023/12/13 10:22:49;;;;;;;18.50;10.73;;;;;;;;;;5080167;28;20728;-85
2023/12/13 10:25:15;;;;;;;15.03;11.13;;;;;;;;;;5076901;28;20495;-84
2023/12/13 10:27:44;;;;;;;18.07;9.53;;;;;;;;;;5074669;28;20456;-84
2023/12/13 10:30:10;;;;;;;13.50;10.03;;;;;;;;;;5078649;28;20494;-84
2023/12/13 10:32:37;;;;;;;16.57;10.40;;;;;;;;;;5081042;28;20516;-86
2023/12/13 10:35:04;;;;;;;12.00;9.17;;;;;;;;;;5080555;28;20448;-84
2023/12/13 10:37:33;;;;;;;19.43;10.97;;;;;;;;;;5081311;28;20531;-86
2023/12/13 10:40:00;;;;;;;18.60;10.10;;;;;;;;;;5074445;28;20483;-86
2023/12/13 10:42:26;;;;;;;21.33;11.70;;;;;;;;;;5075740;28;20535;-85
2023/12/13 10:44:54;;;;;;;24.67;12.33;;;;;;;;;;5078464;28;20550;-84
2023/12/13 10:47:23;;;;;;;19.10;11.50;;;;;;;;;;5076547;28;20488;-87
2023/12/13 10:49:51;;;;;;;16.57;11.43;;;;;;;;;;5077295;28;20462;-85
2023/12/13 10:52:18;;;;;;;15.30;10.80;;;;;;;;;;5081421;28;20451;-84
2023/12/13 10:54:46;;;;;;;24.30;12.90;;;;;;;;;;5081782;28;20570;-85
2023/12/13 10:57:12;;;;;;;17.30;12.60;;;;;;;;;;5072884;28;20955;-85
2023/12/13 10:59:41;;;;;;;15.73;11.40;;;;;;;;;;5068663;28;20464;-84
2023/12/13 11:02:09;;;;;;;16.67;12.53;;;;;;;;;;5071714;28;20484;-85
2023/12/13 11:04:36;;;;;;;28.03;11.80;;;;;;;;;;5069619;28;20452;-84
2023/12/13 11:07:04;;;;;;;18.57;10.50;;;;;;;;;;5069419;28;20480;-84
2023/12/13 11:09:30;;;;;;;18.40;10.80;;;;;;;;;;5074413;28;21060;-84
2023/12/13 11:11:58;;;;;;;17.90;10.57;;;;;;;;;;5068426;28;20484;-85
2023/12/13 11:14:26;;;;;;;20.80;11.63;;;;;;;;;;5073593;28;20527;-87
2023/12/13 11:16:53;;;;;;;14.07;10.00;;;;;;;;;;5065071;28;20448;-89
2023/12/13 11:19:22;;;;;;;11.97;9.43;;;;;;;;;;5066074;28;20449;-87
2023/12/13 11:21:49;;;;;;;16.03;11.23;;;;;;;;;;5070174;28;20481;-87
2023/12/13 11:24:19;;;;;;;14.33;10.47;;;;;;;;;;5069219;28;20449;-86
2023/12/13 11:26:49;;;;;;;15.70;10.70;;;;;;;;;;5068650;28;20456;-87
2023/12/13 11:29:16;;;;;;;14.90;10.73;;;;;;;;;;5070035;28;20479;-84
2023/12/13 11:31:48;;;;;;;14.43;9.87;;;;;;;;;;5072903;28;20522;-85
2023/12/13 11:34:15;;;;;;;16.53;9.53;;;;;;;;;;5073418;28;20539;-85
2023/12/13 11:36:43;;;;;;;15.70;11.33;;;;;;;;;;5072373;28;20472;-85
2023/12/13 11:39:09;;;;;;;18.40;9.37;;;;;;;;;;5075498;28;20468;-84
2023/12/13 11:41:37;;;;;;;18.43;10.60;;;;;;;;;;5077871;28;21200;-84
2023/12/13 11:44:05;;;;;;;14.40;9.43;;;;;;;;;;5078437;28;20546;-84
2023/12/13 11:46:32;;;;;;;13.83;9.87;;;;;;;;;;5073108;28;20511;-83
2023/12/13 11:48:58;;;;;;;17.67;9.90;;;;;;;;;;5070746;28;20439;-84
2023/12/13 11:51:25;;;;;;;13.97;9.10;;;;;;;;;;5077367;28;20490;-83
2023/12/13 11:53:54;;;;;;;12.73;9.30;;;;;;;;;;5068546;28;20466;-83
2023/12/13 11:56:21;;;;;;;12.10;10.40;;;;;;;;;;5078803;28;20474;-85
2023/12/13 11:58:49;;;;;;;16.10;10.33;;;;;;;;;;5073873;28;20491;-85
2023/12/13 12:01:15;;;;;;;17.03;11.20;;;;;;;;;;5071528;28;20475;-85
2023/12/13 12:03:42;;;;;;;18.00;10.23;;;;;;;;;;5073343;28;20496;-85
2023/12/13 12:06:14;;;;;;;15.10;9.57;;;;;;;;;;5075950;28;20514;-85
2023/12/13 12:08:40;;;;;;;13.23;9.10;;;;;;;;;;5078962;28;20443;-85
2023/12/13 12:11:08;;;;;;;13.53;10.10;;;;;;;;;;5078508;28;20452;-86
2023/12/13 12:13:34;;;;;;;14.77;9.53;;;;;;;;;;5082401;28;20436;-86
2023/12/13 12:16:01;;;;;;;12.93;9.00;;;;;;;;;;5078014;28;20471;-85
2023/12/13 12:18:28;;;;;;;12.83;8.63;;;;;;;;;;5073973;28;20474;-84
2023/12/13 12:20:54;;;;;;;18.73;9.13;;;;;;;;;;5080125;28;20503;-86
2023/12/13 12:23:21;;;;;;;9.93;8.53;;;;;;;;;;5074805;28;20560;-85
2023/12/13 12:25:47;;;;;;;14.87;9.77;;;;;;;;;;5074706;28;20448;-85
2023/12/13 12:28:15;;;;;;;13.67;9.10;;;;;;;;;;5080669;28;20488;-85
2023/12/13 12:30:43;;;;;;;12.50;8.77;;;;;;;;;;5080287;28;20484;-86
2023/12/13 12:33:10;;;;;;;13.37;9.50;;;;;;;;;;5081132;28;20988;-85
2023/12/13 12:35:37;;;;;;;14.83;9.80;;;;;;;;;;5080647;28;20456;-85
2023/12/13 12:38:08;;;;;;;14.20;9.93;;;;;;;;;;5081541;28;20464;-85
2023/12/13 12:40:34;;;;;;;11.60;9.30;;;;;;;;;;5074261;28;20459;-86
2023/12/13 12:43:01;;;;;;;14.20;11.47;;;;;;;;;;5074017;28;20503;-87
2023/12/13 12:45:29;;;;;;;14.67;10.80;;;;;;;;;;5078708;28;20566;-84
2023/12/13 12:47:55;;;;;;;14.23;11.30;;;;;;;;;;5078991;28;20464;-84
2023/12/13 12:50:22;;;;;;;15.37;11.10;;;;;;;;;;5074163;28;20452;-83
2023/12/13 12:52:48;;;;;;;16.20;11.60;;;;;;;;;;5078945;28;20448;-85
2023/12/13 12:55:15;;;;;;;20.80;12.13;;;;;;;;;;5077499;28;20456;-86
2023/12/13 12:57:41;;;;;;;17.07;11.37;;;;;;;;;;5080507;28;20496;-84
2023/12/13 13:00:08;;;;;;;16.27;10.67;;;;;;;;;;5071250;28;20487;-84
2023/12/13 13:02:36;;;;;;;16.57;10.60;;;;;;;;;;5081458;28;20523;-86
2023/12/13 13:05:01;;;;;;;23.83;12.50;;;;;;;;;;5072249;28;20490;-85
2023/12/13 13:07:28;;;;;;;14.90;11.53;;;;;;;;;;5078897;28;20455;-85
2023/12/13 13:09:54;;;;;;;29.10;14.00;;;;;;;;;;5076764;28;20552;-87
2023/12/13 13:12:22;;;;;;;27.27;15.33;;;;;;;;;;5070421;28;20448;-85
2023/12/13 13:14:48;;;;;;;24.33;13.73;;;;;;;;;;5073278;28;20460;-85
2023/12/13 13:17:15;;;;;;;23.37;12.77;;;;;;;;;;5074485;28;20868;-86
2023/12/13 13:19:43;;;;;;;19.80;12.73;;;;;;;;;;5071172;28;20452;-86
2023/12/13 13:22:09;;;;;;;20.20;12.53;;;;;;;;;;5066040;28;20496;-87
2023/12/13 13:24:35;;;;;;;17.60;12.40;;;;;;;;;;5077696;28;20483;-86
2023/12/13 13:27:02;;;;;;;16.33;11.80;;;;;;;;;;5080275;28;20487;-87
2023/12/13 13:29:29;;;;;;;19.50;13.33;;;;;;;;;;5071912;28;20464;-87
2023/12/13 13:31:55;;;;;;;17.03;11.73;;;;;;;;;;5080729;28;20455;-87
2023/12/13 13:34:22;;;;;;;29.33;13.77;;;;;;;;;;5080253;28;20479;-86
2023/12/13 13:36:49;;;;;;;20.97;12.07;;;;;;;;;;5076866;28;20484;-86
2023/12/13 13:39:16;;;;;;;20.03;12.43;;;;;;;;;;5065684;28;20908;-86
2023/12/13 13:41:43;;;;;;;27.63;12.20;;;;;;;;;;5076306;28;20464;-87
2023/12/13 13:44:09;;;;;;;16.20;12.47;;;;;;;;;;5080427;28;20618;-86
2023/12/13 13:46:36;;;;;;;17.17;11.73;;;;;;;;;;5077562;28;20593;-85
2023/12/13 13:49:03;;;;;;;17.70;11.80;;;;;;;;;;5079623;28;20992;-88
2023/12/13 13:51:29;;;;;;;14.20;10.90;;;;;;;;;;5077583;28;20924;-86
2023/12/13 13:53:57;;;;;;;20.60;13.27;;;;;;;;;;5078319;28;20459;-85
2023/12/13 13:56:24;;;;;;;16.57;10.90;;;;;;;;;;5076978;28;20472;-85
2023/12/13 13:58:52;;;;;;;13.60;9.67;;;;;;;;;;5072446;28;21382;-86
2023/12/13 14:01:19;;;;;;;14.17;8.70;;;;;;;;;;5079560;28;20525;-86
2023/12/13 14:03:45;;;;;;;17.27;9.37;;;;;;;;;;5074610;28;20526;-85
2023/12/13 14:06:11;;;;;;;12.07;8.00;;;;;;;;;;5078458;28;21188;-86
2023/12/13 14:08:39;;;;;;;21.70;10.03;;;;;;;;;;5069804;28;20503;-84
2023/12/13 14:11:07;;;;;;;15.60;9.80;;;;;;;;;;5078383;28;20463;-84
2023/12/13 14:13:34;;;;;;;14.33;9.73;;;;;;;;;;5077224;28;20539;-86
2023/12/13 14:16:00;;;;;;;19.30;10.13;;;;;;;;;;5078602;28;20467;-85
2023/12/13 14:18:27;;;;;;;15.47;11.80;;;;;;;;;;5078045;28;20464;-88
2023/12/13 14:20:53;;;;;;;16.50;9.57;;;;;;;;;;5076935;28;20452;-84
2023/12/13 14:23:20;;;;;;;14.80;11.00;;;;;;;;;;5066717;28;20502;-85
2023/12/13 14:25:46;;;;;;;21.73;11.33;;;;;;;;;;5071087;28;20491;-86
2023/12/13 14:28:14;;;;;;;16.43;11.03;;;;;;;;;;5070204;28;20477;-86
2023/12/13 14:30:41;;;;;;;23.20;11.90;;;;;;;;;;5075203;28;20456;-87
2023/12/13 14:33:08;;;;;;;14.83;10.73;;;;;;;;;;5080278;28;20978;-87
2023/12/13 14:35:34;;;;;;;22.37;11.17;;;;;;;;;;5079701;28;20455;-85
2023/12/13 14:38:01;;;;;;;20.63;10.83;;;;;;;;;;5078453;28;20479;-84
2023/12/13 14:40:27;;;;;;;25.57;10.50;;;;;;;;;;5073408;28;20459;-84
2023/12/13 14:42:54;;;;;;;20.70;11.03;;;;;;;;;;5073108;28;20487;-85
2023/12/13 14:45:22;;;;;;;18.10;11.50;;;;;;;;;;5070735;28;20518;-85
2023/12/13 14:47:48;;;;;;;21.33;12.00;;;;;;;;;;5072433;28;20526;-84
2023/12/13 14:50:14;;;;;;;20.50;11.80;;;;;;;;;;5069443;28;20487;-85
2023/12/13 14:52:42;;;;;;;22.00;11.37;;;;;;;;;;5071539;28;20452;-87
2023/12/13 14:55:09;;;;;;;23.10;11.30;;;;;;;;;;5073702;28;20452;-86
2023/12/13 14:57:35;;;;;;;24.07;12.00;;;;;;;;;;5072325;28;20464;-84
2023/12/13 15:00:02;;;;;;;17.50;11.07;;;;;;;;;;5068940;28;20479;-87
2023/12/13 15:02:31;;;;;;;19.63;11.53;;;;;;;;;;5070391;28;20448;-86